Strona główna
METAR-TAF:

METAR-TAF

Lotnisko :

Port lotniczy Lipawa

Lipawa, Łotwa

Szerokość geograficzna: 56-31N, Długość geograficzna: 021-05E, wysokość: 5 m

Aktualna obserwacja pogody

Raport powstał 16 minut temu, godzina 17:50 UTC
Wiatr 6 kt od wschodnio-północny wschód
Temperatura -10°C
Wilgotność 85%
Ciśnienie 1019 hPa
Widzialność 10 km lub więcej

METAR: EVLA 151750Z AUTO 06006KT 9999 SCT071/// M10/M12 Q1019

czas: 20:06 (18:06 UTC)

Prognoza

Raport powstał 1 godzina i 3 minut temu, godzina 17:03 UTC
Prognoza ważna od 15 godzina 18 UTC do 16 godzina 18 UTC
Wiatr 7 kt od północno-północny wschód
Widzialność 10 km lub więcej
Przerywane chmury na wysokości 2000 ft
Przejściowo
od 16 godzina 00 UTC do 16 godzina 09 UTC
Widzialność: 2000 m
Przerywane chmury na wysokości 1000 ft
Zachmurzenie całkowite na wysokości 2000 ft
śnieg

TAF: EVLA 151703Z 1518/1618 02007KT 9999 BKN020 TEMPO 1600/1609 2000 SN BKN010 OVC020

Obserwacja i prognoza pogody dla ponad 4000 lotnisk (raport METAR i TAF).

Dostępne stacje oznaczono żółtymi i czerwonymi punktami na mapie.

Najedź kursorem aby zobaczyć nazwę stacji.

Kliknij aby zobaczyć obserwacje i prognozy pogody.

Aby zmienić mapę: kliknij na zielony przycisk z czarnym krzyżykiem, aby powiększyć; na zielony przycisk z myślnikiem, aby pomniejszyć; na zielone strzałki, aby przejść do map sąsiednich.


METAR-TAF: